sensor_id;sensor_type;location;lat;lon;timestamp;P1;durP1;ratioP1;P2;durP2;ratioP2
25946;SDS011;13745;51.470;9.894;2023-11-21T00:01:23;14.63;;;3.35;;
25946;SDS011;13745;51.470;9.894;2023-11-21T00:04:08;11.55;;;3.80;;
25946;SDS011;13745;51.470;9.894;2023-11-21T00:06:54;8.80;;;3.55;;
25946;SDS011;13745;51.470;9.894;2023-11-21T00:09:41;10.00;;;3.80;;
25946;SDS011;13745;51.470;9.894;2023-11-21T00:12:26;7.22;;;3.67;;
25946;SDS011;13745;51.470;9.894;2023-11-21T00:15:13;8.27;;;3.00;;
25946;SDS011;13745;51.470;9.894;2023-11-21T00:17:59;8.48;;;4.15;;
25946;SDS011;13745;51.470;9.894;2023-11-21T00:20:44;7.93;;;4.45;;
25946;SDS011;13745;51.470;9.894;2023-11-21T00:23:30;10.90;;;3.45;;
25946;SDS011;13745;51.470;9.894;2023-11-21T00:26:16;10.50;;;3.47;;
25946;SDS011;13745;51.470;9.894;2023-11-21T00:29:07;12.32;;;4.32;;
25946;SDS011;13745;51.470;9.894;2023-11-21T00:31:52;14.05;;;4.72;;
25946;SDS011;13745;51.470;9.894;2023-11-21T00:34:38;7.43;;;4.60;;
25946;SDS011;13745;51.470;9.894;2023-11-21T00:37:23;6.50;;;4.43;;
25946;SDS011;13745;51.470;9.894;2023-11-21T00:40:09;15.02;;;4.85;;
25946;SDS011;13745;51.470;9.894;2023-11-21T00:42:58;10.88;;;5.20;;
25946;SDS011;13745;51.470;9.894;2023-11-21T00:45:43;9.02;;;4.35;;
25946;SDS011;13745;51.470;9.894;2023-11-21T00:48:28;8.15;;;4.50;;
25946;SDS011;13745;51.470;9.894;2023-11-21T00:51:13;8.23;;;4.78;;
25946;SDS011;13745;51.470;9.894;2023-11-21T00:53:58;11.95;;;5.05;;
25946;SDS011;13745;51.470;9.894;2023-11-21T00:56:43;13.82;;;5.10;;
25946;SDS011;13745;51.470;9.894;2023-11-21T00:59:32;8.40;;;4.60;;
25946;SDS011;13745;51.470;9.894;2023-11-21T01:02:17;8.18;;;4.47;;
25946;SDS011;13745;51.470;9.894;2023-11-21T01:05:03;14.20;;;5.45;;
25946;SDS011;13745;51.470;9.894;2023-11-21T01:07:51;14.13;;;5.10;;
25946;SDS011;13745;51.470;9.894;2023-11-21T01:10:36;10.63;;;4.50;;
25946;SDS011;13745;51.470;9.894;2023-11-21T01:13:22;9.40;;;4.55;;
25946;SDS011;13745;51.470;9.894;2023-11-21T01:16:08;9.32;;;4.38;;
25946;SDS011;13745;51.470;9.894;2023-11-21T01:18:54;6.28;;;3.95;;
25946;SDS011;13745;51.470;9.894;2023-11-21T01:21:40;7.53;;;3.90;;
25946;SDS011;13745;51.470;9.894;2023-11-21T01:24:26;7.65;;;3.95;;
25946;SDS011;13745;51.470;9.894;2023-11-21T01:27:11;9.05;;;4.35;;
25946;SDS011;13745;51.470;9.894;2023-11-21T01:29:56;8.38;;;4.68;;
25946;SDS011;13745;51.470;9.894;2023-11-21T01:32:43;11.40;;;4.90;;
25946;SDS011;13745;51.470;9.894;2023-11-21T01:35:28;14.15;;;5.40;;
25946;SDS011;13745;51.470;9.894;2023-11-21T01:38:14;5.75;;;4.50;;
25946;SDS011;13745;51.470;9.894;2023-11-21T01:41:01;5.75;;;3.90;;
25946;SDS011;13745;51.470;9.894;2023-11-21T01:43:46;7.53;;;3.87;;
25946;SDS011;13745;51.470;9.894;2023-11-21T01:46:31;8.73;;;4.05;;
25946;SDS011;13745;51.470;9.894;2023-11-21T01:49:18;7.10;;;4.20;;
25946;SDS011;13745;51.470;9.894;2023-11-21T01:52:04;8.68;;;3.85;;
25946;SDS011;13745;51.470;9.894;2023-11-21T01:54:50;8.60;;;4.45;;
25946;SDS011;13745;51.470;9.894;2023-11-21T01:57:36;7.95;;;4.45;;
25946;SDS011;13745;51.470;9.894;2023-11-21T02:00:22;11.95;;;5.22;;
25946;SDS011;13745;51.470;9.894;2023-11-21T02:03:08;7.78;;;4.68;;
25946;SDS011;13745;51.470;9.894;2023-11-21T02:05:55;13.30;;;5.15;;
25946;SDS011;13745;51.470;9.894;2023-11-21T02:08:40;10.60;;;4.75;;
25946;SDS011;13745;51.470;9.894;2023-11-21T02:11:29;10.07;;;4.93;;
25946;SDS011;13745;51.470;9.894;2023-11-21T02:14:15;8.07;;;4.90;;
25946;SDS011;13745;51.470;9.894;2023-11-21T02:17:03;9.52;;;5.32;;
25946;SDS011;13745;51.470;9.894;2023-11-21T02:19:48;9.73;;;4.75;;
25946;SDS011;13745;51.470;9.894;2023-11-21T02:22:36;13.93;;;4.63;;
25946;SDS011;13745;51.470;9.894;2023-11-21T02:25:27;20.45;;;5.80;;
25946;SDS011;13745;51.470;9.894;2023-11-21T02:28:14;8.68;;;5.15;;
25946;SDS011;13745;51.470;9.894;2023-11-21T02:31:10;15.57;;;4.95;;
25946;SDS011;13745;51.470;9.894;2023-11-21T02:33:57;15.40;;;5.47;;
25946;SDS011;13745;51.470;9.894;2023-11-21T02:36:42;7.95;;;5.40;;
25946;SDS011;13745;51.470;9.894;2023-11-21T02:39:29;8.65;;;5.40;;
25946;SDS011;13745;51.470;9.894;2023-11-21T02:42:16;8.95;;;4.82;;
25946;SDS011;13745;51.470;9.894;2023-11-21T02:45:02;7.20;;;4.43;;
25946;SDS011;13745;51.470;9.894;2023-11-21T02:47:49;7.00;;;4.90;;
25946;SDS011;13745;51.470;9.894;2023-11-21T02:50:34;11.77;;;5.53;;
25946;SDS011;13745;51.470;9.894;2023-11-21T02:53:20;9.07;;;5.15;;
25946;SDS011;13745;51.470;9.894;2023-11-21T02:56:06;7.90;;;4.97;;
25946;SDS011;13745;51.470;9.894;2023-11-21T02:58:54;7.43;;;5.03;;
25946;SDS011;13745;51.470;9.894;2023-11-21T03:01:40;8.93;;;5.65;;
25946;SDS011;13745;51.470;9.894;2023-11-21T03:04:26;10.95;;;5.38;;
25946;SDS011;13745;51.470;9.894;2023-11-21T03:07:11;11.05;;;5.45;;
25946;SDS011;13745;51.470;9.894;2023-11-21T03:09:57;7.32;;;5.60;;
25946;SDS011;13745;51.470;9.894;2023-11-21T03:12:42;9.05;;;5.30;;
25946;SDS011;13745;51.470;9.894;2023-11-21T03:15:29;9.10;;;4.85;;
25946;SDS011;13745;51.470;9.894;2023-11-21T03:18:16;9.13;;;4.70;;
25946;SDS011;13745;51.470;9.894;2023-11-21T03:21:02;6.28;;;4.22;;
25946;SDS011;13745;51.470;9.894;2023-11-21T03:23:47;6.95;;;4.15;;
25946;SDS011;13745;51.470;9.894;2023-11-21T03:26:32;6.70;;;4.20;;
25946;SDS011;13745;51.470;9.894;2023-11-21T03:29:18;7.05;;;3.90;;
25946;SDS011;13745;51.470;9.894;2023-11-21T03:32:05;6.60;;;4.22;;
25946;SDS011;13745;51.470;9.894;2023-11-21T03:34:54;10.02;;;4.35;;
25946;SDS011;13745;51.470;9.894;2023-11-21T03:37:41;8.27;;;4.25;;
25946;SDS011;13745;51.470;9.894;2023-11-21T03:40:27;7.95;;;4.38;;
25946;SDS011;13745;51.470;9.894;2023-11-21T03:43:13;6.50;;;4.28;;
25946;SDS011;13745;51.470;9.894;2023-11-21T03:45:58;7.82;;;3.67;;
25946;SDS011;13745;51.470;9.894;2023-11-21T03:48:44;7.43;;;4.18;;
25946;SDS011;13745;51.470;9.894;2023-11-21T03:51:30;6.00;;;4.05;;
25946;SDS011;13745;51.470;9.894;2023-11-21T03:54:15;7.85;;;4.00;;
25946;SDS011;13745;51.470;9.894;2023-11-21T03:57:00;8.68;;;4.50;;
25946;SDS011;13745;51.470;9.894;2023-11-21T03:59:45;8.43;;;4.55;;
25946;SDS011;13745;51.470;9.894;2023-11-21T04:02:31;5.13;;;3.72;;
25946;SDS011;13745;51.470;9.894;2023-11-21T04:05:19;5.85;;;4.40;;
25946;SDS011;13745;51.470;9.894;2023-11-21T04:08:05;6.25;;;4.28;;
25946;SDS011;13745;51.470;9.894;2023-11-21T04:10:50;13.55;;;4.78;;
25946;SDS011;13745;51.470;9.894;2023-11-21T04:13:37;11.73;;;5.47;;
25946;SDS011;13745;51.470;9.894;2023-11-21T04:16:22;14.52;;;6.30;;
25946;SDS011;13745;51.470;9.894;2023-11-21T04:19:07;10.27;;;6.05;;
25946;SDS011;13745;51.470;9.894;2023-11-21T04:21:55;11.40;;;5.63;;
25946;SDS011;13745;51.470;9.894;2023-11-21T04:24:40;17.88;;;7.93;;
25946;SDS011;13745;51.470;9.894;2023-11-21T04:27:25;9.23;;;5.80;;
25946;SDS011;13745;51.470;9.894;2023-11-21T04:30:11;15.25;;;6.20;;
25946;SDS011;13745;51.470;9.894;2023-11-21T04:32:57;11.73;;;6.05;;
25946;SDS011;13745;51.470;9.894;2023-11-21T04:35:42;8.95;;;5.53;;
25946;SDS011;13745;51.470;9.894;2023-11-21T04:38:29;9.85;;;5.60;;
25946;SDS011;13745;51.470;9.894;2023-11-21T04:41:14;9.90;;;5.38;;
25946;SDS011;13745;51.470;9.894;2023-11-21T04:44:00;9.88;;;4.70;;
25946;SDS011;13745;51.470;9.894;2023-11-21T04:46:45;11.50;;;4.60;;
25946;SDS011;13745;51.470;9.894;2023-11-21T04:49:30;9.02;;;5.00;;
25946;SDS011;13745;51.470;9.894;2023-11-21T04:52:15;9.52;;;4.75;;
25946;SDS011;13745;51.470;9.894;2023-11-21T04:55:02;10.05;;;5.30;;
25946;SDS011;13745;51.470;9.894;2023-11-21T04:57:50;7.13;;;4.50;;
25946;SDS011;13745;51.470;9.894;2023-11-21T05:00:35;10.35;;;5.35;;
25946;SDS011;13745;51.470;9.894;2023-11-21T05:03:21;8.73;;;5.13;;
25946;SDS011;13745;51.470;9.894;2023-11-21T05:06:09;10.60;;;5.75;;
25946;SDS011;13745;51.470;9.894;2023-11-21T05:08:54;12.48;;;6.50;;
25946;SDS011;13745;51.470;9.894;2023-11-21T05:11:41;7.78;;;5.25;;
25946;SDS011;13745;51.470;9.894;2023-11-21T05:14:26;6.85;;;4.93;;
25946;SDS011;13745;51.470;9.894;2023-11-21T05:17:12;10.90;;;5.22;;
25946;SDS011;13745;51.470;9.894;2023-11-21T05:19:57;9.43;;;4.72;;
25946;SDS011;13745;51.470;9.894;2023-11-21T05:22:42;9.02;;;5.40;;
25946;SDS011;13745;51.470;9.894;2023-11-21T05:25:28;10.43;;;5.65;;
25946;SDS011;13745;51.470;9.894;2023-11-21T05:28:15;9.38;;;5.80;;
25946;SDS011;13745;51.470;9.894;2023-11-21T05:31:00;12.35;;;6.18;;
25946;SDS011;13745;51.470;9.894;2023-11-21T05:33:45;11.43;;;7.40;;
25946;SDS011;13745;51.470;9.894;2023-11-21T05:36:30;10.32;;;6.45;;
25946;SDS011;13745;51.470;9.894;2023-11-21T05:39:15;10.05;;;6.65;;
25946;SDS011;13745;51.470;9.894;2023-11-21T05:42:02;13.93;;;7.28;;
25946;SDS011;13745;51.470;9.894;2023-11-21T05:44:49;18.42;;;8.27;;
25946;SDS011;13745;51.470;9.894;2023-11-21T05:47:35;12.07;;;6.75;;
25946;SDS011;13745;51.470;9.894;2023-11-21T05:50:21;14.43;;;7.68;;
25946;SDS011;13745;51.470;9.894;2023-11-21T05:53:07;10.18;;;6.68;;
25946;SDS011;13745;51.470;9.894;2023-11-21T05:55:54;13.13;;;8.13;;
25946;SDS011;13745;51.470;9.894;2023-11-21T05:58:39;11.48;;;7.20;;
25946;SDS011;13745;51.470;9.894;2023-11-21T06:01:25;10.68;;;7.35;;
25946;SDS011;13745;51.470;9.894;2023-11-21T06:04:13;10.65;;;7.53;;
25946;SDS011;13745;51.470;9.894;2023-11-21T06:06:58;11.27;;;7.32;;
25946;SDS011;13745;51.470;9.894;2023-11-21T06:09:44;16.52;;;7.82;;
25946;SDS011;13745;51.470;9.894;2023-11-21T06:12:29;15.40;;;8.18;;
25946;SDS011;13745;51.470;9.894;2023-11-21T06:15:15;13.63;;;8.30;;
25946;SDS011;13745;51.470;9.894;2023-11-21T06:18:04;12.93;;;8.35;;
25946;SDS011;13745;51.470;9.894;2023-11-21T06:20:53;13.10;;;6.82;;
25946;SDS011;13745;51.470;9.894;2023-11-21T06:23:38;11.20;;;7.22;;
25946;SDS011;13745;51.470;9.894;2023-11-21T06:26:24;13.88;;;7.72;;
25946;SDS011;13745;51.470;9.894;2023-11-21T06:29:09;11.07;;;7.68;;
25946;SDS011;13745;51.470;9.894;2023-11-21T06:31:55;11.48;;;6.90;;
25946;SDS011;13745;51.470;9.894;2023-11-21T06:34:42;13.95;;;7.82;;
25946;SDS011;13745;51.470;9.894;2023-11-21T06:37:28;13.25;;;8.75;;
25946;SDS011;13745;51.470;9.894;2023-11-21T06:40:13;11.05;;;7.80;;
25946;SDS011;13745;51.470;9.894;2023-11-21T06:42:59;15.55;;;7.30;;
25946;SDS011;13745;51.470;9.894;2023-11-21T06:45:45;15.45;;;9.15;;
25946;SDS011;13745;51.470;9.894;2023-11-21T06:48:30;11.57;;;6.97;;
25946;SDS011;13745;51.470;9.894;2023-11-21T06:51:17;12.68;;;7.18;;
25946;SDS011;13745;51.470;9.894;2023-11-21T06:54:02;8.70;;;6.00;;
25946;SDS011;13745;51.470;9.894;2023-11-21T06:56:48;13.90;;;8.43;;
25946;SDS011;13745;51.470;9.894;2023-11-21T06:59:33;13.73;;;7.90;;
25946;SDS011;13745;51.470;9.894;2023-11-21T07:02:19;15.38;;;9.30;;
25946;SDS011;13745;51.470;9.894;2023-11-21T07:05:04;13.88;;;8.48;;
25946;SDS011;13745;51.470;9.894;2023-11-21T07:07:51;13.95;;;8.35;;
25946;SDS011;13745;51.470;9.894;2023-11-21T07:10:37;13.30;;;8.32;;
25946;SDS011;13745;51.470;9.894;2023-11-21T07:13:23;14.55;;;8.82;;
25946;SDS011;13745;51.470;9.894;2023-11-21T07:16:08;13.00;;;8.02;;
25946;SDS011;13745;51.470;9.894;2023-11-21T07:18:54;14.15;;;9.07;;
25946;SDS011;13745;51.470;9.894;2023-11-21T07:21:40;12.82;;;8.45;;
25946;SDS011;13745;51.470;9.894;2023-11-21T07:24:26;14.50;;;8.63;;
25946;SDS011;13745;51.470;9.894;2023-11-21T07:27:12;13.10;;;8.27;;
25946;SDS011;13745;51.470;9.894;2023-11-21T07:29:57;18.23;;;10.27;;
25946;SDS011;13745;51.470;9.894;2023-11-21T07:32:42;13.13;;;8.32;;
25946;SDS011;13745;51.470;9.894;2023-11-21T07:35:30;15.63;;;10.10;;
25946;SDS011;13745;51.470;9.894;2023-11-21T07:38:15;17.77;;;11.60;;
25946;SDS011;13745;51.470;9.894;2023-11-21T07:41:01;22.98;;;11.98;;
25946;SDS011;13745;51.470;9.894;2023-11-21T07:43:47;24.63;;;13.18;;
25946;SDS011;13745;51.470;9.894;2023-11-21T07:46:32;24.02;;;12.75;;
25946;SDS011;13745;51.470;9.894;2023-11-21T07:49:17;15.68;;;9.52;;
25946;SDS011;13745;51.470;9.894;2023-11-21T07:52:05;13.52;;;8.23;;
25946;SDS011;13745;51.470;9.894;2023-11-21T07:54:50;12.20;;;8.48;;
25946;SDS011;13745;51.470;9.894;2023-11-21T07:57:37;19.30;;;10.30;;
25946;SDS011;13745;51.470;9.894;2023-11-21T08:00:22;13.43;;;9.10;;
25946;SDS011;13745;51.470;9.894;2023-11-21T08:03:08;14.18;;;10.43;;
25946;SDS011;13745;51.470;9.894;2023-11-21T08:05:53;15.70;;;9.75;;
25946;SDS011;13745;51.470;9.894;2023-11-21T08:08:38;17.25;;;9.23;;
25946;SDS011;13745;51.470;9.894;2023-11-21T08:11:23;11.50;;;8.27;;
25946;SDS011;13745;51.470;9.894;2023-11-21T08:14:11;13.20;;;8.43;;
25946;SDS011;13745;51.470;9.894;2023-11-21T08:16:56;12.73;;;8.88;;
25946;SDS011;13745;51.470;9.894;2023-11-21T08:19:42;11.50;;;8.18;;
25946;SDS011;13745;51.470;9.894;2023-11-21T08:22:28;11.45;;;8.27;;
25946;SDS011;13745;51.470;9.894;2023-11-21T08:25:13;16.15;;;8.52;;
25946;SDS011;13745;51.470;9.894;2023-11-21T08:27:58;15.23;;;8.40;;
25946;SDS011;13745;51.470;9.894;2023-11-21T08:30:45;13.00;;;9.38;;
25946;SDS011;13745;51.470;9.894;2023-11-21T08:33:30;12.75;;;7.40;;
25946;SDS011;13745;51.470;9.894;2023-11-21T08:36:16;13.50;;;7.75;;
25946;SDS011;13745;51.470;9.894;2023-11-21T08:39:02;10.95;;;7.20;;
25946;SDS011;13745;51.470;9.894;2023-11-21T08:41:47;10.20;;;7.47;;
25946;SDS011;13745;51.470;9.894;2023-11-21T08:44:32;10.95;;;6.90;;
25946;SDS011;13745;51.470;9.894;2023-11-21T08:47:19;14.20;;;6.97;;
25946;SDS011;13745;51.470;9.894;2023-11-21T08:50:04;15.38;;;7.30;;
25946;SDS011;13745;51.470;9.894;2023-11-21T08:52:51;9.45;;;6.78;;
25946;SDS011;13745;51.470;9.894;2023-11-21T08:55:36;11.85;;;7.55;;
25946;SDS011;13745;51.470;9.894;2023-11-21T08:58:21;16.55;;;10.05;;
25946;SDS011;13745;51.470;9.894;2023-11-21T09:01:06;16.90;;;9.23;;
25946;SDS011;13745;51.470;9.894;2023-11-21T09:03:53;19.05;;;11.15;;
25946;SDS011;13745;51.470;9.894;2023-11-21T09:06:39;23.48;;;12.35;;
25946;SDS011;13745;51.470;9.894;2023-11-21T09:09:24;23.35;;;12.95;;
25946;SDS011;13745;51.470;9.894;2023-11-21T09:12:09;21.85;;;12.80;;
25946;SDS011;13745;51.470;9.894;2023-11-21T09:14:56;22.48;;;13.40;;
25946;SDS011;13745;51.470;9.894;2023-11-21T09:17:41;20.08;;;11.80;;
25946;SDS011;13745;51.470;9.894;2023-11-21T09:20:28;17.92;;;10.80;;
25946;SDS011;13745;51.470;9.894;2023-11-21T09:23:13;19.27;;;10.77;;
25946;SDS011;13745;51.470;9.894;2023-11-21T09:25:59;17.80;;;10.80;;
25946;SDS011;13745;51.470;9.894;2023-11-21T09:28:44;31.35;;;18.17;;
25946;SDS011;13745;51.470;9.894;2023-11-21T09:31:31;24.02;;;15.05;;
25946;SDS011;13745;51.470;9.894;2023-11-21T09:34:17;19.63;;;12.27;;
25946;SDS011;13745;51.470;9.894;2023-11-21T09:37:04;24.00;;;12.50;;
25946;SDS011;13745;51.470;9.894;2023-11-21T09:39:50;22.80;;;12.13;;
25946;SDS011;13745;51.470;9.894;2023-11-21T09:42:36;16.17;;;10.55;;
25946;SDS011;13745;51.470;9.894;2023-11-21T09:45:27;15.25;;;9.70;;
25946;SDS011;13745;51.470;9.894;2023-11-21T09:48:15;19.42;;;13.73;;
25946;SDS011;13745;51.470;9.894;2023-11-21T09:51:03;22.77;;;14.90;;
25946;SDS011;13745;51.470;9.894;2023-11-21T09:53:50;27.80;;;14.35;;
25946;SDS011;13745;51.470;9.894;2023-11-21T09:56:37;19.13;;;11.73;;
25946;SDS011;13745;51.470;9.894;2023-11-21T09:59:22;19.35;;;11.38;;
25946;SDS011;13745;51.470;9.894;2023-11-21T10:02:08;19.58;;;10.13;;
25946;SDS011;13745;51.470;9.894;2023-11-21T10:04:56;19.05;;;10.30;;
25946;SDS011;13745;51.470;9.894;2023-11-21T10:07:43;18.80;;;9.88;;
25946;SDS011;13745;51.470;9.894;2023-11-21T10:10:31;18.85;;;10.30;;
25946;SDS011;13745;51.470;9.894;2023-11-21T10:13:17;16.10;;;10.25;;
25946;SDS011;13745;51.470;9.894;2023-11-21T10:16:03;17.20;;;9.75;;
25946;SDS011;13745;51.470;9.894;2023-11-21T10:18:52;15.60;;;8.55;;
25946;SDS011;13745;51.470;9.894;2023-11-21T10:21:39;16.73;;;9.27;;
25946;SDS011;13745;51.470;9.894;2023-11-21T10:24:24;19.08;;;9.55;;
25946;SDS011;13745;51.470;9.894;2023-11-21T10:27:11;17.75;;;10.65;;
25946;SDS011;13745;51.470;9.894;2023-11-21T10:29:56;13.52;;;9.00;;
25946;SDS011;13745;51.470;9.894;2023-11-21T10:32:41;15.05;;;8.88;;
25946;SDS011;13745;51.470;9.894;2023-11-21T10:35:38;19.30;;;9.57;;
25946;SDS011;13745;51.470;9.894;2023-11-21T10:38:24;14.20;;;8.70;;
25946;SDS011;13745;51.470;9.894;2023-11-21T10:41:11;16.98;;;9.05;;
25946;SDS011;13745;51.470;9.894;2023-11-21T10:44:00;16.10;;;9.23;;
25946;SDS011;13745;51.470;9.894;2023-11-21T10:46:48;14.00;;;8.55;;
25946;SDS011;13745;51.470;9.894;2023-11-21T10:49:34;17.20;;;9.00;;
25946;SDS011;13745;51.470;9.894;2023-11-21T10:52:26;14.25;;;8.85;;
25946;SDS011;13745;51.470;9.894;2023-11-21T10:55:18;14.90;;;8.98;;
25946;SDS011;13745;51.470;9.894;2023-11-21T10:58:06;14.63;;;8.43;;
25946;SDS011;13745;51.470;9.894;2023-11-21T11:00:55;14.57;;;8.70;;
25946;SDS011;13745;51.470;9.894;2023-11-21T11:03:41;12.68;;;8.32;;
25946;SDS011;13745;51.470;9.894;2023-11-21T11:06:28;13.70;;;8.57;;
25946;SDS011;13745;51.470;9.894;2023-11-21T11:09:13;15.05;;;7.75;;
25946;SDS011;13745;51.470;9.894;2023-11-21T11:12:01;14.23;;;9.07;;
25946;SDS011;13745;51.470;9.894;2023-11-21T11:14:51;15.15;;;9.40;;
25946;SDS011;13745;51.470;9.894;2023-11-21T11:17:37;18.23;;;9.85;;
25946;SDS011;13745;51.470;9.894;2023-11-21T11:20:24;17.38;;;9.07;;
25946;SDS011;13745;51.470;9.894;2023-11-21T11:23:20;15.55;;;9.15;;
25946;SDS011;13745;51.470;9.894;2023-11-21T11:26:20;14.82;;;9.30;;
25946;SDS011;13745;51.470;9.894;2023-11-21T11:29:18;14.90;;;9.40;;
25946;SDS011;13745;51.470;9.894;2023-11-21T11:32:16;13.55;;;8.60;;
25946;SDS011;13745;51.470;9.894;2023-11-21T11:35:12;13.80;;;8.60;;
25946;SDS011;13745;51.470;9.894;2023-11-21T11:38:04;13.32;;;8.70;;
25946;SDS011;13745;51.470;9.894;2023-11-21T11:40:52;28.30;;;14.10;;
25946;SDS011;13745;51.470;9.894;2023-11-21T11:43:38;39.00;;;17.90;;
25946;SDS011;13745;51.470;9.894;2023-11-21T11:46:39;20.88;;;10.45;;
25946;SDS011;13745;51.470;9.894;2023-11-21T11:49:27;18.65;;;11.18;;
25946;SDS011;13745;51.470;9.894;2023-11-21T11:52:32;16.15;;;9.63;;
25946;SDS011;13745;51.470;9.894;2023-11-21T11:55:19;15.20;;;10.35;;
25946;SDS011;13745;51.470;9.894;2023-11-21T11:58:06;16.02;;;9.52;;
25946;SDS011;13745;51.470;9.894;2023-11-21T12:00:51;25.45;;;10.88;;
25946;SDS011;13745;51.470;9.894;2023-11-21T12:03:38;16.63;;;9.85;;
25946;SDS011;13745;51.470;9.894;2023-11-21T12:06:30;14.85;;;9.50;;
25946;SDS011;13745;51.470;9.894;2023-11-21T12:09:19;12.80;;;8.05;;
25946;SDS011;13745;51.470;9.894;2023-11-21T12:12:05;12.57;;;7.13;;
25946;SDS011;13745;51.470;9.894;2023-11-21T12:14:53;8.88;;;5.78;;
25946;SDS011;13745;51.470;9.894;2023-11-21T12:17:39;6.38;;;4.85;;
25946;SDS011;13745;51.470;9.894;2023-11-21T12:20:25;7.10;;;4.70;;
25946;SDS011;13745;51.470;9.894;2023-11-21T12:23:11;4.60;;;3.15;;
25946;SDS011;13745;51.470;9.894;2023-11-21T12:25:59;3.70;;;2.92;;
25946;SDS011;13745;51.470;9.894;2023-11-21T12:28:51;4.00;;;3.17;;
25946;SDS011;13745;51.470;9.894;2023-11-21T12:31:39;3.88;;;3.13;;
25946;SDS011;13745;51.470;9.894;2023-11-21T12:34:25;4.35;;;3.45;;
25946;SDS011;13745;51.470;9.894;2023-11-21T12:37:10;5.05;;;3.65;;
25946;SDS011;13745;51.470;9.894;2023-11-21T12:39:55;4.00;;;3.33;;
25946;SDS011;13745;51.470;9.894;2023-11-21T12:42:44;7.45;;;4.05;;
25946;SDS011;13745;51.470;9.894;2023-11-21T12:45:32;6.60;;;3.83;;
25946;SDS011;13745;51.470;9.894;2023-11-21T12:48:18;5.65;;;4.53;;
25946;SDS011;13745;51.470;9.894;2023-11-21T12:51:08;8.55;;;4.88;;
25946;SDS011;13745;51.470;9.894;2023-11-21T12:53:53;7.25;;;5.55;;
25946;SDS011;13745;51.470;9.894;2023-11-21T12:56:39;10.10;;;6.03;;
25946;SDS011;13745;51.470;9.894;2023-11-21T12:59:26;7.70;;;5.82;;
25946;SDS011;13745;51.470;9.894;2023-11-21T13:02:12;9.48;;;5.85;;
25946;SDS011;13745;51.470;9.894;2023-11-21T13:04:59;8.95;;;5.93;;
25946;SDS011;13745;51.470;9.894;2023-11-21T13:07:50;7.43;;;6.18;;
25946;SDS011;13745;51.470;9.894;2023-11-21T13:10:39;9.25;;;6.90;;
25946;SDS011;13745;51.470;9.894;2023-11-21T13:13:28;9.32;;;6.40;;
25946;SDS011;13745;51.470;9.894;2023-11-21T13:16:15;8.80;;;6.90;;
25946;SDS011;13745;51.470;9.894;2023-11-21T13:19:00;9.23;;;6.82;;
25946;SDS011;13745;51.470;9.894;2023-11-21T13:21:45;8.27;;;6.45;;
25946;SDS011;13745;51.470;9.894;2023-11-21T13:24:30;11.55;;;7.40;;
25946;SDS011;13745;51.470;9.894;2023-11-21T13:27:15;9.75;;;7.57;;
25946;SDS011;13745;51.470;9.894;2023-11-21T13:30:00;9.68;;;7.18;;
25946;SDS011;13745;51.470;9.894;2023-11-21T13:32:47;8.43;;;6.50;;
25946;SDS011;13745;51.470;9.894;2023-11-21T13:35:35;13.18;;;6.60;;
25946;SDS011;13745;51.470;9.894;2023-11-21T13:38:25;8.85;;;6.93;;
25946;SDS011;13745;51.470;9.894;2023-11-21T13:41:15;14.65;;;8.20;;
25946;SDS011;13745;51.470;9.894;2023-11-21T13:44:01;11.55;;;7.90;;
25946;SDS011;13745;51.470;9.894;2023-11-21T13:46:57;10.38;;;7.10;;
25946;SDS011;13745;51.470;9.894;2023-11-21T13:49:44;11.90;;;7.80;;
25946;SDS011;13745;51.470;9.894;2023-11-21T13:52:31;9.15;;;7.65;;
25946;SDS011;13745;51.470;9.894;2023-11-21T13:55:17;14.40;;;8.57;;
25946;SDS011;13745;51.470;9.894;2023-11-21T13:58:02;13.68;;;8.68;;
25946;SDS011;13745;51.470;9.894;2023-11-21T14:00:53;9.63;;;7.30;;
25946;SDS011;13745;51.470;9.894;2023-11-21T14:03:40;11.27;;;7.85;;
25946;SDS011;13745;51.470;9.894;2023-11-21T14:06:36;10.90;;;7.82;;
25946;SDS011;13745;51.470;9.894;2023-11-21T14:09:31;11.23;;;8.20;;
25946;SDS011;13745;51.470;9.894;2023-11-21T14:12:19;10.85;;;7.47;;
25946;SDS011;13745;51.470;9.894;2023-11-21T14:15:05;10.80;;;7.60;;
25946;SDS011;13745;51.470;9.894;2023-11-21T14:17:53;10.65;;;7.53;;
25946;SDS011;13745;51.470;9.894;2023-11-21T14:20:38;9.85;;;7.45;;
25946;SDS011;13745;51.470;9.894;2023-11-21T14:23:25;9.15;;;6.78;;
25946;SDS011;13745;51.470;9.894;2023-11-21T14:26:10;13.38;;;8.52;;
25946;SDS011;13745;51.470;9.894;2023-11-21T14:28:57;12.05;;;8.05;;
25946;SDS011;13745;51.470;9.894;2023-11-21T14:31:43;13.27;;;7.60;;
25946;SDS011;13745;51.470;9.894;2023-11-21T14:34:29;11.18;;;8.07;;
25946;SDS011;13745;51.470;9.894;2023-11-21T14:37:14;12.57;;;8.05;;
25946;SDS011;13745;51.470;9.894;2023-11-21T14:40:01;9.88;;;7.18;;
25946;SDS011;13745;51.470;9.894;2023-11-21T14:42:48;13.20;;;8.57;;
25946;SDS011;13745;51.470;9.894;2023-11-21T14:45:35;9.50;;;6.63;;
25946;SDS011;13745;51.470;9.894;2023-11-21T14:48:20;9.95;;;7.18;;
25946;SDS011;13745;51.470;9.894;2023-11-21T14:51:20;9.48;;;7.28;;
25946;SDS011;13745;51.470;9.894;2023-11-21T14:54:14;9.23;;;6.85;;
25946;SDS011;13745;51.470;9.894;2023-11-21T14:57:08;9.67;;;6.57;;
25946;SDS011;13745;51.470;9.894;2023-11-21T14:59:55;9.20;;;6.85;;
25946;SDS011;13745;51.470;9.894;2023-11-21T15:02:41;8.93;;;6.50;;
25946;SDS011;13745;51.470;9.894;2023-11-21T15:05:33;9.43;;;6.80;;
25946;SDS011;13745;51.470;9.894;2023-11-21T15:08:19;11.20;;;7.30;;
25946;SDS011;13745;51.470;9.894;2023-11-21T15:11:07;12.98;;;7.10;;
25946;SDS011;13745;51.470;9.894;2023-11-21T15:13:59;11.98;;;7.45;;
25946;SDS011;13745;51.470;9.894;2023-11-21T15:16:44;9.35;;;7.15;;
25946;SDS011;13745;51.470;9.894;2023-11-21T15:19:34;9.52;;;6.78;;
25946;SDS011;13745;51.470;9.894;2023-11-21T15:22:19;10.35;;;7.22;;
25946;SDS011;13745;51.470;9.894;2023-11-21T15:25:06;13.65;;;8.93;;
25946;SDS011;13745;51.470;9.894;2023-11-21T15:27:53;9.63;;;6.80;;
25946;SDS011;13745;51.470;9.894;2023-11-21T15:30:41;7.47;;;6.10;;
25946;SDS011;13745;51.470;9.894;2023-11-21T15:33:27;9.45;;;7.47;;
25946;SDS011;13745;51.470;9.894;2023-11-21T15:36:12;12.57;;;6.78;;
25946;SDS011;13745;51.470;9.894;2023-11-21T15:38:59;10.73;;;6.60;;
25946;SDS011;13745;51.470;9.894;2023-11-21T15:41:44;7.90;;;6.70;;
25946;SDS011;13745;51.470;9.894;2023-11-21T15:44:30;16.00;;;9.25;;
25946;SDS011;13745;51.470;9.894;2023-11-21T15:47:18;9.00;;;6.43;;
25946;SDS011;13745;51.470;9.894;2023-11-21T15:50:04;9.10;;;6.43;;
25946;SDS011;13745;51.470;9.894;2023-11-21T15:52:54;10.02;;;6.93;;
25946;SDS011;13745;51.470;9.894;2023-11-21T15:55:40;8.63;;;5.93;;
25946;SDS011;13745;51.470;9.894;2023-11-21T15:58:26;9.20;;;6.22;;
25946;SDS011;13745;51.470;9.894;2023-11-21T16:01:11;8.85;;;6.60;;
25946;SDS011;13745;51.470;9.894;2023-11-21T16:03:58;10.70;;;7.00;;
25946;SDS011;13745;51.470;9.894;2023-11-21T16:06:45;9.80;;;7.15;;
25946;SDS011;13745;51.470;9.894;2023-11-21T16:09:31;7.47;;;5.97;;
25946;SDS011;13745;51.470;9.894;2023-11-21T16:12:20;8.13;;;5.82;;
25946;SDS011;13745;51.470;9.894;2023-11-21T16:15:06;6.93;;;5.90;;
25946;SDS011;13745;51.470;9.894;2023-11-21T16:17:53;6.25;;;5.32;;
25946;SDS011;13745;51.470;9.894;2023-11-21T16:20:39;9.10;;;5.60;;
25946;SDS011;13745;51.470;9.894;2023-11-21T16:23:24;8.07;;;6.03;;
25946;SDS011;13745;51.470;9.894;2023-11-21T16:26:09;6.88;;;5.60;;
25946;SDS011;13745;51.470;9.894;2023-11-21T16:28:55;6.57;;;5.35;;
25946;SDS011;13745;51.470;9.894;2023-11-21T16:31:40;6.70;;;5.22;;
25946;SDS011;13745;51.470;9.894;2023-11-21T16:34:26;5.80;;;5.07;;